createdAt,value
2018-06-14T00:01:53.855Z,16.13
2018-06-14T00:04:24.856Z,16.11
2018-06-14T00:06:57.058Z,16.09
2018-06-14T00:09:29.209Z,16.04
2018-06-14T00:12:01.014Z,16.00
2018-06-14T00:14:32.112Z,15.99
2018-06-14T00:17:03.364Z,15.99
2018-06-14T00:19:34.528Z,15.97
2018-06-14T00:22:05.635Z,15.96
2018-06-14T00:24:37.893Z,15.97
2018-06-14T00:27:09.981Z,15.98
2018-06-14T00:29:41.483Z,15.99
2018-06-14T00:32:12.664Z,16.03
2018-06-14T00:34:43.629Z,16.05
2018-06-14T00:37:14.752Z,16.06
2018-06-14T00:39:45.734Z,16.07
2018-06-14T00:42:16.794Z,16.05
2018-06-14T00:44:48.409Z,16.01
2018-06-14T00:47:20.179Z,15.94
2018-06-14T00:49:51.467Z,15.86
2018-06-14T00:52:22.821Z,15.85
2018-06-14T00:54:54.033Z,15.81
2018-06-14T00:57:28.781Z,15.72
2018-06-14T01:00:00.488Z,15.69
2018-06-14T01:02:32.672Z,15.69
2018-06-14T01:05:04.121Z,15.74
2018-06-14T01:07:35.241Z,15.76
2018-06-14T01:10:06.417Z,15.76
2018-06-14T01:12:38.323Z,15.76
2018-06-14T01:15:09.423Z,15.76
2018-06-14T01:17:42.614Z,15.76
2018-06-14T01:20:13.880Z,15.75
2018-06-14T01:22:45.050Z,15.73
2018-06-14T01:25:16.066Z,15.71
2018-06-14T01:27:47.046Z,15.66
2018-06-14T01:30:17.979Z,15.62
2018-06-14T01:32:49.149Z,15.57
2018-06-14T01:35:21.001Z,15.56
2018-06-14T01:38:08.201Z,15.54
2018-06-14T01:40:39.360Z,15.54
2018-06-14T01:43:10.495Z,15.52
2018-06-14T01:45:42.506Z,15.50
2018-06-14T01:48:13.860Z,15.47
2018-06-14T01:50:45.145Z,15.47
2018-06-14T01:53:16.418Z,15.42
2018-06-14T01:55:47.402Z,15.36
2018-06-14T01:58:18.555Z,15.28
2018-06-14T02:00:49.718Z,15.23
2018-06-14T02:03:22.027Z,15.20
2018-06-14T02:05:53.503Z,15.25
2018-06-14T02:08:24.557Z,15.33
2018-06-14T02:11:01.837Z,15.39
2018-06-14T02:13:32.778Z,15.47
2018-06-14T02:16:04.851Z,15.49
2018-06-14T02:18:36.966Z,15.54
2018-06-14T02:21:08.383Z,15.59
2018-06-14T02:23:39.984Z,15.64
2018-06-14T02:26:11.202Z,15.71
2018-06-14T02:28:42.286Z,15.78
2018-06-14T02:31:13.447Z,15.86
2018-06-14T02:33:44.939Z,15.89
2018-06-14T02:36:17.047Z,15.90
2018-06-14T02:38:48.095Z,15.88
2018-06-14T02:41:19.232Z,15.86
2018-06-14T02:43:50.317Z,15.86
2018-06-14T02:46:21.504Z,15.87
2018-06-14T02:48:52.951Z,15.88
2018-06-14T02:51:24.447Z,15.88
2018-06-14T02:53:56.078Z,15.88
2018-06-14T02:56:26.935Z,15.87
2018-06-14T02:58:58.245Z,15.91
2018-06-14T03:01:29.967Z,15.94
2018-06-14T03:04:00.983Z,15.99
2018-06-14T03:06:32.063Z,15.97
2018-06-14T03:09:05.446Z,15.94
2018-06-14T03:11:36.409Z,15.87
2018-06-14T03:14:08.469Z,15.85
2018-06-14T03:16:39.695Z,15.86
2018-06-14T03:19:11.333Z,15.87
2018-06-14T03:21:42.574Z,15.87
2018-06-14T03:24:13.426Z,15.87
2018-06-14T03:26:44.447Z,15.83
2018-06-14T03:29:15.662Z,15.82
2018-06-14T03:31:46.753Z,15.82
2018-06-14T03:34:18.313Z,15.82
2018-06-14T03:36:49.922Z,15.82
2018-06-14T03:39:20.862Z,15.82
2018-06-14T03:41:51.803Z,15.82
2018-06-14T03:44:22.850Z,15.81
2018-06-14T03:46:53.757Z,15.80
2018-06-14T03:49:24.958Z,15.81
2018-06-14T03:51:56.727Z,15.81
2018-06-14T03:54:28.868Z,15.81
2018-06-14T03:57:00.403Z,15.81
2018-06-14T03:59:32.075Z,15.81
2018-06-14T04:02:03.473Z,15.83
2018-06-14T04:04:34.411Z,15.87
2018-06-14T04:07:05.356Z,15.89
2018-06-14T04:09:37.339Z,15.92
2018-06-14T04:12:08.503Z,15.95
2018-06-14T04:14:39.833Z,15.95
2018-06-14T04:17:11.872Z,15.98
2018-06-14T04:19:42.388Z,15.97
2018-06-14T04:22:13.624Z,15.99
2018-06-14T04:24:44.920Z,16.03
2018-06-14T04:27:17.441Z,16.05
2018-06-14T04:29:48.577Z,16.10
2018-06-14T04:32:19.922Z,16.19
2018-06-14T04:34:51.503Z,16.27
2018-06-14T04:37:22.640Z,16.35
2018-06-14T04:39:53.638Z,16.39
2018-06-14T04:42:24.725Z,16.44
2018-06-14T04:44:57.563Z,16.53
2018-06-14T04:47:29.932Z,16.63
2018-06-14T04:50:01.376Z,16.75
2018-06-14T04:52:32.580Z,16.87
2018-06-14T04:55:03.689Z,16.98
2018-06-14T04:57:34.695Z,17.10
2018-06-14T05:00:09.235Z,17.24
2018-06-14T05:02:40.503Z,17.32
2018-06-14T05:05:11.919Z,17.33
2018-06-14T05:07:44.100Z,17.30
2018-06-14T05:10:15.277Z,17.37
2018-06-14T05:12:46.172Z,17.46
2018-06-14T05:15:17.419Z,17.59
2018-06-14T05:17:49.396Z,17.60
2018-06-14T05:20:21.038Z,17.66
2018-06-14T05:22:52.015Z,17.79
2018-06-14T05:25:23.205Z,17.87
2018-06-14T05:27:55.799Z,17.94
2018-06-14T05:30:26.972Z,18.12
2018-06-14T05:32:59.098Z,18.30
2018-06-14T05:35:30.665Z,18.49
2018-06-14T05:38:01.687Z,18.64
2018-06-14T05:40:32.565Z,18.72
2018-06-14T05:43:03.678Z,18.76
2018-06-14T05:45:34.741Z,18.77
2018-06-14T05:48:05.941Z,18.67
2018-06-14T05:50:37.645Z,18.57
2018-06-14T05:53:09.393Z,18.60
2018-06-14T05:55:40.412Z,18.49
2018-06-14T05:58:11.721Z,18.47
2018-06-14T06:00:43.630Z,18.52
2018-06-14T06:03:15.712Z,18.61
2018-06-14T06:05:47.013Z,18.68
2018-06-14T06:08:20.082Z,18.76
2018-06-14T06:10:51.369Z,18.76
2018-06-14T06:13:22.542Z,18.85
2018-06-14T06:15:54.536Z,19.05
2018-06-14T06:18:25.941Z,19.36
2018-06-14T06:20:57.120Z,19.97
2018-06-14T06:23:28.740Z,20.60
2018-06-14T06:25:59.973Z,21.81
2018-06-14T06:28:31.224Z,23.05
2018-06-14T06:31:03.901Z,23.89
2018-06-14T06:33:35.306Z,24.34
2018-06-14T06:36:06.468Z,24.58
2018-06-14T06:38:37.816Z,24.74
2018-06-14T06:41:09.160Z,25.15
2018-06-14T06:43:40.628Z,25.18
2018-06-14T06:46:12.293Z,25.34
2018-06-14T06:48:44.004Z,25.42
2018-06-14T06:51:16.556Z,25.41
2018-06-14T06:53:48.256Z,25.16
2018-06-14T06:56:19.701Z,24.39
2018-06-14T06:58:50.961Z,24.05
2018-06-14T07:01:22.100Z,23.53
2018-06-14T07:03:53.307Z,22.89
2018-06-14T07:06:24.861Z,22.49
2018-06-14T07:08:56.989Z,22.58
2018-06-14T07:11:28.472Z,23.22
2018-06-14T07:13:59.686Z,24.12
2018-06-14T07:16:31.579Z,24.90
2018-06-14T07:19:03.347Z,25.94
2018-06-14T07:21:35.190Z,26.03
2018-06-14T07:24:06.799Z,27.52
2018-06-14T07:26:38.785Z,28.09
2018-06-14T07:29:12.213Z,28.72
2018-06-14T07:31:44.066Z,28.78
2018-06-14T07:34:15.933Z,28.44
2018-06-14T07:36:47.165Z,28.79
2018-06-14T07:39:18.388Z,29.14
2018-06-14T07:41:51.046Z,28.99
2018-06-14T07:44:22.735Z,29.40
2018-06-14T07:46:55.359Z,29.72
2018-06-14T07:49:27.674Z,29.64
2018-06-14T07:51:59.364Z,28.73
2018-06-14T07:54:31.500Z,28.77
2018-06-14T07:57:02.843Z,29.32
2018-06-14T07:59:34.164Z,29.66
2018-06-14T08:02:05.945Z,30.30
2018-06-14T08:04:38.604Z,30.09
2018-06-14T08:07:10.839Z,30.29
2018-06-14T08:09:41.885Z,30.43
2018-06-14T08:12:14.049Z,30.55
2018-06-14T08:14:45.346Z,30.46
2018-06-14T08:17:17.448Z,30.83
2018-06-14T08:19:48.548Z,30.98
2018-06-14T08:22:19.479Z,31.18
2018-06-14T08:24:54.282Z,31.28
2018-06-14T08:27:25.405Z,31.30
2018-06-14T08:29:59.425Z,31.28
2018-06-14T08:32:45.559Z,31.32
2018-06-14T08:35:16.714Z,30.57
2018-06-14T08:37:48.261Z,29.33
2018-06-14T08:40:22.666Z,28.16
2018-06-14T08:42:59.739Z,28.06
2018-06-14T08:45:32.136Z,27.54
2018-06-14T08:48:03.679Z,28.52
2018-06-14T08:50:35.436Z,29.44
2018-06-14T08:53:07.961Z,28.80
2018-06-14T08:55:40.569Z,29.35
2018-06-14T08:58:12.873Z,31.08
2018-06-14T09:00:44.700Z,31.57
2018-06-14T09:03:17.038Z,32.47
2018-06-14T09:05:51.326Z,31.76
2018-06-14T09:08:24.882Z,32.18
2018-06-14T09:10:55.924Z,32.58
2018-06-14T09:13:28.453Z,31.65
2018-06-14T09:16:01.004Z,32.04
2018-06-14T09:18:32.864Z,31.97
2018-06-14T09:21:04.770Z,31.10
2018-06-14T09:23:37.806Z,31.15
2018-06-14T09:26:10.323Z,30.82
2018-06-14T09:28:42.696Z,32.05
2018-06-14T09:31:14.260Z,31.90
2018-06-14T09:33:45.350Z,32.07
2018-06-14T09:36:16.676Z,31.77
2018-06-14T09:38:47.851Z,32.25
2018-06-14T09:41:20.437Z,32.66
2018-06-14T09:43:52.742Z,33.39
2018-06-14T09:46:24.648Z,32.67
2018-06-14T09:49:00.946Z,32.23
2018-06-14T09:51:32.873Z,32.78
2018-06-14T09:54:05.089Z,32.17
2018-06-14T09:56:37.796Z,31.31
2018-06-14T09:59:09.813Z,30.81
2018-06-14T10:01:41.642Z,31.65
2018-06-14T10:04:12.803Z,31.96
2018-06-14T10:06:44.912Z,32.21
2018-06-14T10:09:17.381Z,33.07
2018-06-14T10:11:49.550Z,32.60
2018-06-14T10:14:20.816Z,32.99
2018-06-14T10:16:52.238Z,32.83
2018-06-14T10:19:23.332Z,33.06
2018-06-14T10:21:55.953Z,33.02
2018-06-14T10:24:27.730Z,33.26
2018-06-14T10:26:59.904Z,33.36
2018-06-14T10:29:32.423Z,33.43
2018-06-14T10:32:05.079Z,33.50
2018-06-14T10:34:36.903Z,33.70
2018-06-14T10:37:09.247Z,34.41
2018-06-14T10:39:40.927Z,33.94
2018-06-14T10:42:12.775Z,33.93
2018-06-14T10:44:45.468Z,32.96
2018-06-14T10:47:18.471Z,33.07
2018-06-14T10:49:52.194Z,33.62
2018-06-14T10:52:23.509Z,33.36
2018-06-14T10:54:54.855Z,32.88
2018-06-14T10:57:28.068Z,33.77
2018-06-14T11:00:00.215Z,34.41
2018-06-14T11:02:31.720Z,35.13
2018-06-14T11:05:03.814Z,34.37
2018-06-14T11:07:34.961Z,34.46
2018-06-14T11:10:06.655Z,33.56
2018-06-14T11:12:39.196Z,31.75
2018-06-14T11:15:11.181Z,31.46
2018-06-14T11:17:43.073Z,32.34
2018-06-14T11:20:14.803Z,33.42
2018-06-14T11:22:46.573Z,34.14
2018-06-14T11:25:20.441Z,33.65
2018-06-14T11:27:56.798Z,33.66
2018-06-14T11:30:32.339Z,32.80
2018-06-14T11:33:08.919Z,31.68
2018-06-14T11:35:41.184Z,30.53
2018-06-14T11:38:19.227Z,30.10
2018-06-14T11:40:51.978Z,30.32
2018-06-14T11:43:24.218Z,31.18
2018-06-14T11:45:56.144Z,31.87
2018-06-14T11:48:55.499Z,32.47
2018-06-14T11:51:30.252Z,32.26
2018-06-14T11:54:01.814Z,32.56
2018-06-14T11:56:34.289Z,31.99
2018-06-14T11:59:13.941Z,31.46
2018-06-14T12:01:49.071Z,30.77
2018-06-14T12:04:20.268Z,30.70
2018-06-14T12:06:56.543Z,30.47
2018-06-14T12:09:31.103Z,30.28
2018-06-14T12:12:04.949Z,30.03
2018-06-14T12:14:38.815Z,29.59
2018-06-14T12:17:10.187Z,29.57
2018-06-14T12:19:42.444Z,29.88
2018-06-14T12:22:15.980Z,30.08
2018-06-14T12:24:52.681Z,29.84
2018-06-14T12:27:23.835Z,29.93
2018-06-14T12:30:00.482Z,29.98
2018-06-14T12:32:34.815Z,30.01
2018-06-14T12:35:09.709Z,29.67
2018-06-14T12:37:42.539Z,29.80
2018-06-14T12:40:14.361Z,30.39
2018-06-14T12:42:45.665Z,30.42
2018-06-14T12:45:17.397Z,30.53
2018-06-14T12:47:59.466Z,30.01
2018-06-14T12:50:37.980Z,30.08
2018-06-14T12:53:14.893Z,30.24
2018-06-14T12:55:52.307Z,30.74
2018-06-14T12:58:27.632Z,30.82
2018-06-14T13:00:59.691Z,30.99
2018-06-14T13:03:33.590Z,30.66
2018-06-14T13:06:05.202Z,29.37
2018-06-14T13:08:36.967Z,30.09
2018-06-14T13:11:09.132Z,30.81
2018-06-14T13:13:40.220Z,31.11
2018-06-14T13:16:11.401Z,31.54
2018-06-14T13:18:42.699Z,31.50
2018-06-14T13:21:15.774Z,31.37
2018-06-14T13:23:46.908Z,31.35
2018-06-14T13:26:18.245Z,31.24
2018-06-14T13:28:52.407Z,30.74
2018-06-14T13:31:29.466Z,29.89
2018-06-14T13:34:01.966Z,30.13
2018-06-14T13:36:34.210Z,31.13
2018-06-14T13:39:08.419Z,31.54
2018-06-14T13:41:41.516Z,31.89
2018-06-14T13:44:12.431Z,31.69
2018-06-14T13:46:48.403Z,31.80
2018-06-14T13:49:20.857Z,31.50
2018-06-14T13:51:53.100Z,31.27
2018-06-14T13:54:27.048Z,30.71
2018-06-14T13:56:58.785Z,30.90
2018-06-14T13:59:30.262Z,31.40
2018-06-14T14:02:01.969Z,31.17
2018-06-14T14:04:33.752Z,31.34
2018-06-14T14:07:07.454Z,31.13
2018-06-14T14:09:39.971Z,30.91
2018-06-14T14:12:10.573Z,29.93
2018-06-14T14:14:42.041Z,29.77
2018-06-14T14:17:15.088Z,29.50
2018-06-14T14:19:46.414Z,30.21
2018-06-14T14:22:18.309Z,31.03
2018-06-14T14:24:50.919Z,30.58
2018-06-14T14:27:23.368Z,30.91
2018-06-14T14:29:54.891Z,31.11
2018-06-14T14:32:25.645Z,31.11
2018-06-14T14:34:56.306Z,30.88
2018-06-14T14:37:27.465Z,30.91
2018-06-14T14:39:59.842Z,30.73
2018-06-14T14:42:31.271Z,30.96
2018-06-14T14:45:03.930Z,30.80
2018-06-14T14:47:36.153Z,30.24
2018-06-14T14:50:07.430Z,30.26
2018-06-14T14:52:39.548Z,29.99
2018-06-14T14:55:11.503Z,29.62
2018-06-14T14:57:43.566Z,30.03
2018-06-14T15:00:16.715Z,30.12
2018-06-14T15:02:49.120Z,30.36
2018-06-14T15:05:21.017Z,30.31
2018-06-14T15:07:52.528Z,29.70
2018-06-14T15:10:24.432Z,29.15
2018-06-14T15:12:56.880Z,28.97
2018-06-14T15:15:28.490Z,28.99
2018-06-14T15:18:01.409Z,29.07
2018-06-14T15:20:34.156Z,29.58
2018-06-14T15:23:06.503Z,29.52
2018-06-14T15:25:37.270Z,29.15
2018-06-14T15:28:07.529Z,28.97
2018-06-14T15:30:39.174Z,28.65
2018-06-14T15:33:12.335Z,28.46
2018-06-14T15:35:43.409Z,28.17
2018-06-14T15:38:14.678Z,27.75
2018-06-14T15:40:46.344Z,28.00
2018-06-14T15:43:17.483Z,27.68
2018-06-14T15:45:49.644Z,27.48
2018-06-14T15:48:22.349Z,27.20
2018-06-14T15:50:54.487Z,26.92
2018-06-14T15:53:25.940Z,27.15
2018-06-14T15:56:19.955Z,27.00
2018-06-14T15:58:51.507Z,27.05
2018-06-14T16:01:23.657Z,27.14
2018-06-14T16:03:55.409Z,27.45
2018-06-14T16:06:29.969Z,27.86
2018-06-14T16:09:01.986Z,28.07
2018-06-14T16:11:34.488Z,27.96
2018-06-14T16:14:05.909Z,27.51
2018-06-14T16:16:39.006Z,27.46
2018-06-14T16:19:12.232Z,27.73
2018-06-14T16:21:44.577Z,27.53
2018-06-14T16:24:16.315Z,27.36
2018-06-14T16:26:48.420Z,27.52
2018-06-14T16:29:21.115Z,27.65
2018-06-14T16:31:53.201Z,27.21
2018-06-14T16:34:25.713Z,27.08
2018-06-14T16:37:02.823Z,26.75
2018-06-14T16:39:36.543Z,26.53
2018-06-14T16:42:10.564Z,26.46
2018-06-14T16:44:43.492Z,26.60
2018-06-14T16:47:15.452Z,26.51
2018-06-14T16:49:48.231Z,26.49
2018-06-14T16:52:19.879Z,26.41
2018-06-14T16:54:52.160Z,26.30
2018-06-14T16:57:23.922Z,26.03
2018-06-14T16:59:55.193Z,25.94
2018-06-14T17:02:29.011Z,25.83
2018-06-14T17:05:01.290Z,25.82
2018-06-14T17:07:32.988Z,25.66
2018-06-14T17:10:04.388Z,25.54
2018-06-14T17:12:35.805Z,25.43
2018-06-14T17:15:07.987Z,25.30
2018-06-14T17:17:39.360Z,25.14
2018-06-14T17:20:12.351Z,25.12
2018-06-14T17:22:44.256Z,25.01
2018-06-14T17:25:17.008Z,24.96
2018-06-14T17:27:49.899Z,24.86
2018-06-14T17:30:21.646Z,24.74
2018-06-14T17:32:52.740Z,24.56
2018-06-14T17:35:25.555Z,24.48
2018-06-14T17:37:57.228Z,24.42
2018-06-14T17:40:29.528Z,24.18
2018-06-14T17:43:01.650Z,24.11
2018-06-14T17:45:34.848Z,24.08
2018-06-14T17:48:07.614Z,24.14
2018-06-14T17:50:40.357Z,24.09
2018-06-14T17:53:11.970Z,24.03
2018-06-14T17:55:43.919Z,23.94
2018-06-14T17:58:16.934Z,23.87
2018-06-14T18:00:49.814Z,23.76
2018-06-14T18:03:23.554Z,23.68
2018-06-14T18:05:56.005Z,23.56
2018-06-14T18:08:28.907Z,23.44
2018-06-14T18:11:02.125Z,23.38
2018-06-14T18:13:36.523Z,23.28
2018-06-14T18:16:08.928Z,23.15
2018-06-14T18:18:41.611Z,23.04
2018-06-14T18:21:14.563Z,22.95
2018-06-14T18:23:47.399Z,22.82
2018-06-14T18:26:20.674Z,22.70
2018-06-14T18:28:54.286Z,22.64
2018-06-14T18:31:27.803Z,22.56
2018-06-14T18:34:00.474Z,22.45
2018-06-14T18:36:35.137Z,22.38
2018-06-14T18:39:11.818Z,22.28
2018-06-14T18:41:44.826Z,22.19
2018-06-14T18:44:18.375Z,22.12
2018-06-14T18:46:51.117Z,22.05
2018-06-14T18:49:24.896Z,21.93
2018-06-14T18:51:58.048Z,21.85
2018-06-14T18:54:31.080Z,21.75
2018-06-14T18:57:03.259Z,21.67
2018-06-14T18:59:35.493Z,21.59
2018-06-14T19:02:09.414Z,21.50
2018-06-14T19:04:43.574Z,21.40
2018-06-14T19:07:16.282Z,21.28
2018-06-14T19:09:50.186Z,21.16
2018-06-14T19:12:22.808Z,21.05
2018-06-14T19:14:55.969Z,20.91
2018-06-14T19:17:30.299Z,20.79
2018-06-14T19:20:03.891Z,20.71
2018-06-14T19:22:36.732Z,20.64
2018-06-14T19:25:10.652Z,20.59
2018-06-14T19:27:44.086Z,20.56
2018-06-14T19:30:18.459Z,20.53
2018-06-14T19:32:51.276Z,20.50
2018-06-14T19:35:24.099Z,20.48
2018-06-14T19:37:58.480Z,20.44
2018-06-14T19:40:31.720Z,20.34
2018-06-14T19:43:05.416Z,20.23
2018-06-14T19:45:38.761Z,20.23
2018-06-14T19:48:12.296Z,20.21
2018-06-14T19:50:45.494Z,20.14
2018-06-14T19:53:18.814Z,20.08
2018-06-14T19:55:53.322Z,20.05
2018-06-14T19:58:26.282Z,20.05
2018-06-14T20:00:58.278Z,20.11
2018-06-14T20:03:31.413Z,20.13
2018-06-14T20:06:04.524Z,20.12
2018-06-14T20:08:39.118Z,20.08
2018-06-14T20:11:12.391Z,20.04
2018-06-14T20:13:45.416Z,19.97
2018-06-14T20:16:18.692Z,19.92
2018-06-14T20:18:52.108Z,19.88
2018-06-14T20:21:26.794Z,19.81
2018-06-14T20:23:59.042Z,19.75
2018-06-14T20:26:34.230Z,19.71
2018-06-14T20:29:07.480Z,19.68
2018-06-14T20:31:41.135Z,19.67
2018-06-14T20:34:14.694Z,19.62
2018-06-14T20:36:47.995Z,19.54
2018-06-14T20:39:21.130Z,19.51
2018-06-14T20:41:55.236Z,19.45
2018-06-14T20:44:28.783Z,19.39
2018-06-14T20:47:02.992Z,19.35
2018-06-14T20:49:35.551Z,19.28
2018-06-14T20:52:09.332Z,19.26
2018-06-14T20:54:42.732Z,19.22
2018-06-14T20:57:15.853Z,19.19
2018-06-14T20:59:49.536Z,19.15
2018-06-14T21:02:22.277Z,19.11
2018-06-14T21:04:55.968Z,19.09
2018-06-14T21:07:29.376Z,19.08
2018-06-14T21:10:03.045Z,19.07
2018-06-14T21:12:35.894Z,19.07
2018-06-14T21:15:09.252Z,19.05
2018-06-14T21:17:41.279Z,19.00
2018-06-14T21:20:14.003Z,18.92
2018-06-14T21:22:48.096Z,18.87
2018-06-14T21:25:19.974Z,18.83
2018-06-14T21:27:51.599Z,18.74
2018-06-14T21:30:23.277Z,18.65
2018-06-14T21:32:54.918Z,18.55
2018-06-14T21:35:27.118Z,18.50
2018-06-14T21:38:00.278Z,18.41
2018-06-14T21:40:31.652Z,18.40
2018-06-14T21:43:03.419Z,18.41
2018-06-14T21:45:35.470Z,18.39
2018-06-14T21:48:07.619Z,18.34
2018-06-14T21:50:46.114Z,18.32
2018-06-14T21:53:19.500Z,18.31
2018-06-14T21:55:51.737Z,18.31
2018-06-14T21:58:23.136Z,18.31
2018-06-14T22:00:56.181Z,18.32
2018-06-14T22:03:33.040Z,18.28
2018-06-14T22:06:04.020Z,18.25
2018-06-14T22:08:35.105Z,18.24
2018-06-14T22:11:06.205Z,18.21
2018-06-14T22:13:37.759Z,18.17
2018-06-14T22:16:09.276Z,18.15
2018-06-14T22:18:40.400Z,18.14
2018-06-14T22:21:11.407Z,18.12
2018-06-14T22:23:44.027Z,18.09
2018-06-14T22:26:15.067Z,18.04
2018-06-14T22:28:45.958Z,17.98
2018-06-14T22:31:17.461Z,17.93
2018-06-14T22:34:04.922Z,17.87
2018-06-14T22:36:36.078Z,17.83
2018-06-14T22:39:08.934Z,17.78
2018-06-14T22:41:40.863Z,17.75
2018-06-14T22:44:11.733Z,17.75
2018-06-14T22:46:43.062Z,17.73
2018-06-14T22:49:14.446Z,17.70
2018-06-14T22:53:53.958Z,17.71
2018-06-14T22:56:25.280Z,17.65
2018-06-14T22:58:56.760Z,17.60
2018-06-14T23:01:35.321Z,17.51
2018-06-14T23:04:07.742Z,17.39
2018-06-14T23:06:40.362Z,17.25
2018-06-14T23:10:27.746Z,17.16
2018-06-14T23:12:59.015Z,17.09
2018-06-14T23:15:30.652Z,17.02
2018-06-14T23:18:02.084Z,16.87
2018-06-14T23:20:34.251Z,16.83
2018-06-14T23:23:06.818Z,16.76
2018-06-14T23:25:39.207Z,16.67
2018-06-14T23:28:10.667Z,16.60
2018-06-14T23:30:41.807Z,16.54
2018-06-14T23:33:13.046Z,16.46
2018-06-14T23:35:44.519Z,16.40
2018-06-14T23:38:15.538Z,16.36
2018-06-14T23:40:46.897Z,16.33
2018-06-14T23:43:19.199Z,16.29
2018-06-14T23:45:50.504Z,16.26
2018-06-14T23:48:21.488Z,16.22
2018-06-14T23:50:52.726Z,16.18
2018-06-14T23:53:23.836Z,16.13
2018-06-14T23:55:54.896Z,16.08
2018-06-14T23:58:25.914Z,16.08
